Terminal Aerodrome Forecast
Issued by NWS

Home | Current Version | Previous Version | Graphics & Text | Print | Product List | Glossary On
Versions: 1 2 3 4 5 6 7 8 9 10 11 12 13 14 15 16 17 18 19 20 21 22 23 24 25
000
FTUS42 KMHX 232100 AAA
TAFOAJ
TAF AMD
KOAJ 232105Z 2321/2418 18010G15KT P6SM SCT030 BKN060
     FM232300 21005KT P6SM SCT040
     FM241600 24010KT P6SM VCTS BKN035CB
      AMD LTD TO CLD VIS AND WIND=

USA.gov is the U.S. government's official web portal to all federal, state and local government web resources and services.